Terminal Aerodrome Forecast
Issued by NWS

Home | Current Version | Previous Version | Text Only | Print | Product List | Glossary On
Versions: 1 2 3 4 5 6 7 8 9 10 11 12 13 14 15 16 17 18 19 20 21 22 23 24 25 26 27 28 29 30 31 32 33 34 35 36 37
000
FTUS45 KBOU 221138
TAFAPA
TAF
KAPA 221138Z 2212/2312 21014KT P6SM BKN220
     FM221600 24010KT P6SM BKN200
     FM222200 28011KT P6SM SCT140 BKN200
     FM230100 25011KT P6SM FEW100 BKN140
     FM230800 34010G18KT P6SM SCT060 BKN100
     FM231100 32010KT P6SM SCT100 BKN150=

USA.gov is the U.S. government's official web portal to all federal, state and local government web resources and services.